createdAt,value
2018-12-18T00:02:58.834Z,10.10
2018-12-18T00:07:01.202Z,9.80
2018-12-18T00:11:03.580Z,9.80
2018-12-18T00:15:05.949Z,9.10
2018-12-18T00:19:08.299Z,8.70
2018-12-18T00:23:10.701Z,9.90
2018-12-18T00:27:13.132Z,8.90
2018-12-18T00:31:15.506Z,9.20
2018-12-18T00:35:17.849Z,9.00
2018-12-18T00:39:20.194Z,9.90
2018-12-18T00:43:22.535Z,9.80
2018-12-18T00:47:24.910Z,9.90
2018-12-18T00:51:27.267Z,9.50
2018-12-18T00:55:29.600Z,9.00
2018-12-18T00:59:31.969Z,9.00
2018-12-18T01:03:34.296Z,9.60
2018-12-18T01:07:36.680Z,9.50
2018-12-18T01:11:39.016Z,8.50
2018-12-18T01:15:41.331Z,8.70
2018-12-18T01:19:43.652Z,8.40
2018-12-18T01:23:45.925Z,9.10
2018-12-18T01:27:48.255Z,9.20
2018-12-18T01:31:50.562Z,8.60
2018-12-18T01:35:52.914Z,9.50
2018-12-18T01:39:55.246Z,9.20
2018-12-18T01:43:57.598Z,9.20
2018-12-18T01:47:59.934Z,8.90
2018-12-18T01:52:02.287Z,8.30
2018-12-18T01:56:04.570Z,8.70
2018-12-18T02:00:07.202Z,8.50
2018-12-18T02:04:09.606Z,7.40
2018-12-18T02:08:11.971Z,7.60
2018-12-18T02:12:14.319Z,7.70
2018-12-18T02:16:16.701Z,6.90
2018-12-18T02:20:19.020Z,8.30
2018-12-18T02:24:21.394Z,8.60
2018-12-18T02:28:23.750Z,8.40
2018-12-18T02:32:26.125Z,8.30
2018-12-18T02:36:28.418Z,7.80
2018-12-18T02:40:30.786Z,6.80
2018-12-18T02:44:33.113Z,6.50
2018-12-18T02:48:35.469Z,7.30
2018-12-18T02:52:37.892Z,7.60
2018-12-18T02:56:40.197Z,7.60
2018-12-18T03:00:42.591Z,7.70
2018-12-18T03:04:44.926Z,7.60
2018-12-18T03:08:47.275Z,7.20
2018-12-18T03:12:49.616Z,7.30
2018-12-18T03:16:51.925Z,7.50
2018-12-18T03:20:54.266Z,7.30
2018-12-18T03:24:56.605Z,7.40
2018-12-18T03:28:59.067Z,7.40
2018-12-18T03:33:01.351Z,6.70
2018-12-18T03:37:03.715Z,6.70
2018-12-18T03:41:06.026Z,7.00
2018-12-18T03:45:08.507Z,6.80
2018-12-18T03:49:10.739Z,7.00
2018-12-18T03:53:13.113Z,7.00
2018-12-18T03:57:15.461Z,6.70
2018-12-18T04:01:17.765Z,6.80
2018-12-18T04:05:20.137Z,6.80
2018-12-18T04:09:22.523Z,6.80
2018-12-18T04:13:24.848Z,6.30
2018-12-18T04:17:27.275Z,6.10
2018-12-18T04:21:29.705Z,5.80
2018-12-18T04:25:32.073Z,6.50
2018-12-18T04:29:34.394Z,6.40
2018-12-18T04:33:36.728Z,5.80
2018-12-18T04:37:39.028Z,6.30
2018-12-18T04:41:41.325Z,6.20
2018-12-18T04:45:43.711Z,4.90
2018-12-18T04:49:46.077Z,6.00
2018-12-18T04:53:48.477Z,5.40
2018-12-18T04:57:50.814Z,5.80
2018-12-18T05:01:53.260Z,5.50
2018-12-18T05:05:55.601Z,5.90
2018-12-18T05:09:57.952Z,6.00
2018-12-18T05:14:00.414Z,5.80
2018-12-18T05:18:02.734Z,5.80
2018-12-18T05:22:05.064Z,5.90
2018-12-18T05:26:07.437Z,5.90
2018-12-18T05:30:09.874Z,6.00
2018-12-18T05:34:12.262Z,5.90
2018-12-18T05:38:14.560Z,5.70
2018-12-18T05:42:16.952Z,5.30
2018-12-18T05:46:19.345Z,5.60
2018-12-18T05:50:21.704Z,5.90
2018-12-18T05:54:24.057Z,5.80
2018-12-18T05:58:26.380Z,5.70
2018-12-18T06:02:28.755Z,5.60
2018-12-18T06:06:31.165Z,5.70
2018-12-18T06:10:33.605Z,5.80
2018-12-18T06:14:36.060Z,5.30
2018-12-18T06:18:38.568Z,5.50
2018-12-18T06:22:41.031Z,5.40
2018-12-18T06:26:43.404Z,5.70
2018-12-18T06:30:45.850Z,5.20
2018-12-18T06:34:48.230Z,5.10
2018-12-18T06:38:50.629Z,5.40
2018-12-18T06:42:53.380Z,5.00
2018-12-18T06:46:55.424Z,4.70
2018-12-18T06:50:57.689Z,5.50
2018-12-18T06:55:00.071Z,5.20
2018-12-18T06:59:03.849Z,5.40
2018-12-18T07:03:06.236Z,5.40
2018-12-18T07:07:08.586Z,5.30
2018-12-18T07:11:10.962Z,5.30
2018-12-18T07:15:14.114Z,5.10
2018-12-18T07:19:16.545Z,5.30
2018-12-18T07:23:18.895Z,5.00
2018-12-18T07:27:21.334Z,5.20
2018-12-18T07:31:23.725Z,5.50
2018-12-18T07:35:26.146Z,5.70
2018-12-18T07:39:28.464Z,5.90
2018-12-18T07:43:30.820Z,5.60
2018-12-18T07:47:33.224Z,5.60
2018-12-18T07:51:35.628Z,6.00
2018-12-18T07:55:37.991Z,6.30
2018-12-18T07:59:40.771Z,6.50
2018-12-18T08:03:43.251Z,6.50
2018-12-18T08:07:45.588Z,5.80
2018-12-18T08:11:47.930Z,6.60
2018-12-18T08:15:50.306Z,7.00
2018-12-18T08:19:52.771Z,7.40
2018-12-18T08:23:55.110Z,7.50
2018-12-18T08:27:57.538Z,8.00
2018-12-18T08:31:59.906Z,8.10
2018-12-18T08:36:02.281Z,7.80
2018-12-18T08:40:05.204Z,8.00
2018-12-18T08:44:07.652Z,8.40
2018-12-18T08:48:10.088Z,7.20
2018-12-18T08:52:12.494Z,7.90
2018-12-18T08:56:14.850Z,8.00
2018-12-18T09:00:17.235Z,8.30
2018-12-18T09:04:19.679Z,8.20
2018-12-18T09:08:22.019Z,8.40
2018-12-18T09:12:24.358Z,8.60
2018-12-18T09:16:32.299Z,7.10
2018-12-18T09:20:34.719Z,7.20
2018-12-18T09:24:37.063Z,8.40
2018-12-18T09:28:39.383Z,8.60
2018-12-18T09:32:41.698Z,8.60
2018-12-18T09:36:44.042Z,8.00
2018-12-18T09:40:51.958Z,8.20
2018-12-18T09:44:54.368Z,7.00
2018-12-18T09:48:56.737Z,8.00
2018-12-18T09:52:59.118Z,8.50
2018-12-18T09:57:01.498Z,9.00
2018-12-18T10:01:05.067Z,9.10
2018-12-18T10:05:08.301Z,9.20
2018-12-18T10:09:10.710Z,9.70
2018-12-18T10:13:13.102Z,10.20
2018-12-18T10:17:16.664Z,8.70
2018-12-18T10:21:18.999Z,9.30
2018-12-18T10:25:21.371Z,8.60
2018-12-18T10:29:25.502Z,9.00
2018-12-18T10:33:28.594Z,8.90
2018-12-18T10:37:31.006Z,9.20
2018-12-18T10:41:33.341Z,9.50
2018-12-18T10:45:35.835Z,9.60
2018-12-18T10:49:38.174Z,9.30
2018-12-18T10:53:40.540Z,8.90
2018-12-18T10:57:42.882Z,9.50
2018-12-18T11:01:47.782Z,9.90
2018-12-18T11:05:51.162Z,9.80
2018-12-18T11:09:54.408Z,9.80
2018-12-18T11:13:56.859Z,8.90
2018-12-18T11:17:59.271Z,9.60
2018-12-18T11:22:01.603Z,9.40
2018-12-18T11:26:04.033Z,9.10
2018-12-18T11:30:06.503Z,10.00
2018-12-18T11:34:09.396Z,10.00
2018-12-18T11:38:11.769Z,10.50
2018-12-18T11:42:14.147Z,10.50
2018-12-18T11:46:16.479Z,9.80
2018-12-18T11:50:18.802Z,10.10
2018-12-18T11:54:21.143Z,10.20
2018-12-18T11:58:24.523Z,8.70
2018-12-18T12:02:26.862Z,8.40
2018-12-18T12:06:29.997Z,9.60
2018-12-18T12:10:32.378Z,10.00
2018-12-18T12:14:34.726Z,10.20
2018-12-18T12:18:37.053Z,9.90
2018-12-18T12:22:39.476Z,9.90
2018-12-18T12:26:46.375Z,10.30
2018-12-18T12:30:48.746Z,10.00
2018-12-18T12:34:52.010Z,9.50
2018-12-18T12:38:54.383Z,10.10
2018-12-18T12:42:56.701Z,10.50
2018-12-18T12:46:59.051Z,10.80
2018-12-18T12:51:01.417Z,9.30
2018-12-18T12:55:04.215Z,9.90
2018-12-18T12:59:06.645Z,9.80
2018-12-18T13:03:10.927Z,10.00
2018-12-18T13:07:13.288Z,10.10
2018-12-18T13:11:16.786Z,9.70
2018-12-18T13:15:19.210Z,7.10
2018-12-18T13:19:21.621Z,7.50
2018-12-18T13:23:23.960Z,9.10
2018-12-18T13:27:26.351Z,9.30
2018-12-18T13:31:28.705Z,7.40
2018-12-18T13:35:31.046Z,9.30
2018-12-18T13:39:33.429Z,7.80
2018-12-18T13:43:35.774Z,8.20
2018-12-18T13:47:38.135Z,8.30
2018-12-18T13:51:40.535Z,8.30
2018-12-18T13:55:42.943Z,6.80
2018-12-18T13:59:45.335Z,7.80
2018-12-18T14:03:47.789Z,7.50
2018-12-18T14:07:50.125Z,8.40
2018-12-18T14:11:52.493Z,9.10
2018-12-18T14:15:54.801Z,9.10
2018-12-18T14:19:57.216Z,8.00
2018-12-18T14:23:59.644Z,8.40
2018-12-18T14:28:02.055Z,8.40
2018-12-18T14:32:04.476Z,9.00
2018-12-18T14:36:06.891Z,8.40
2018-12-18T14:40:09.291Z,7.40
2018-12-18T14:44:12.466Z,8.10
2018-12-18T14:48:14.894Z,8.50
2018-12-18T14:52:17.215Z,7.40
2018-12-18T14:56:19.624Z,8.60
2018-12-18T15:00:22.016Z,8.70
2018-12-18T15:04:24.351Z,8.60
2018-12-18T15:08:26.774Z,7.80
2018-12-18T15:12:29.805Z,7.30
2018-12-18T15:16:32.210Z,7.80
2018-12-18T15:20:35.424Z,7.30
2018-12-18T15:24:37.796Z,7.20
2018-12-18T15:28:40.180Z,7.50
2018-12-18T15:32:42.626Z,7.50
2018-12-18T15:36:45.179Z,7.40
2018-12-18T15:40:48.359Z,6.70
2018-12-18T15:44:50.688Z,7.30
2018-12-18T15:48:53.151Z,8.20
2018-12-18T15:52:55.531Z,7.80
2018-12-18T15:56:57.880Z,7.90
2018-12-18T16:01:00.191Z,7.70
2018-12-18T16:05:02.569Z,7.90
2018-12-18T16:09:07.269Z,8.10
2018-12-18T16:13:09.617Z,7.90
2018-12-18T16:17:13.891Z,7.50
2018-12-18T16:21:16.321Z,7.20
2018-12-18T16:25:19.128Z,6.50
2018-12-18T16:29:22.094Z,6.90
2018-12-18T16:33:24.471Z,7.70
2018-12-18T16:37:26.869Z,7.10
2018-12-18T16:41:30.136Z,7.90
2018-12-18T16:45:32.764Z,7.50
2018-12-18T16:49:35.179Z,7.70
2018-12-18T16:53:37.570Z,7.20
2018-12-18T16:57:40.248Z,6.70
2018-12-18T17:01:45.016Z,7.30
2018-12-18T17:05:47.851Z,6.70
2018-12-18T17:09:50.835Z,7.50
2018-12-18T17:13:53.290Z,7.50
2018-12-18T17:17:56.232Z,7.20
2018-12-18T17:21:58.909Z,7.10
2018-12-18T17:26:01.631Z,7.30
2018-12-18T17:30:04.401Z,7.60
2018-12-18T17:34:06.795Z,8.00
2018-12-18T17:38:09.273Z,8.60
2018-12-18T17:42:11.655Z,8.40
2018-12-18T17:46:14.144Z,8.60
2018-12-18T17:50:16.658Z,8.50
2018-12-18T17:54:21.293Z,8.80
2018-12-18T17:58:24.261Z,8.80
2018-12-18T18:02:27.600Z,8.70
2018-12-18T18:06:29.990Z,8.70
2018-12-18T18:10:32.530Z,8.60
2018-12-18T18:14:36.165Z,8.40
2018-12-18T18:18:40.678Z,6.90
2018-12-18T18:22:43.303Z,7.10
2018-12-18T18:26:45.937Z,6.40
2018-12-18T18:30:48.576Z,7.00
2018-12-18T18:34:52.498Z,6.60
2018-12-18T18:38:55.182Z,6.20
2018-12-18T18:42:58.334Z,5.90
2018-12-18T18:47:00.789Z,5.60
2018-12-18T18:51:03.354Z,6.20
2018-12-18T18:55:08.216Z,6.50
2018-12-18T18:59:11.286Z,6.50
2018-12-18T19:03:14.089Z,6.60
2018-12-18T19:07:16.717Z,7.00
2018-12-18T19:11:19.330Z,7.00
2018-12-18T19:15:21.884Z,6.40
2018-12-18T19:19:24.372Z,7.40
2018-12-18T19:23:26.816Z,6.80
2018-12-18T19:27:29.205Z,6.20
2018-12-18T19:31:31.707Z,6.20
2018-12-18T19:35:34.187Z,6.20
2018-12-18T19:39:36.656Z,6.30
2018-12-18T19:43:39.083Z,5.90
2018-12-18T19:47:41.735Z,7.50
2018-12-18T19:51:44.189Z,8.00
2018-12-18T19:55:47.668Z,7.20
2018-12-18T19:59:50.027Z,6.80
2018-12-18T20:03:52.427Z,6.60
2018-12-18T20:07:54.839Z,7.10
2018-12-18T20:11:57.653Z,7.70
2018-12-18T20:16:00.439Z,8.00
2018-12-18T20:20:03.624Z,7.60
2018-12-18T20:24:06.165Z,7.90
2018-12-18T20:28:09.293Z,7.60
2018-12-18T20:32:11.942Z,5.50
2018-12-18T20:36:14.375Z,6.00
2018-12-18T20:40:17.185Z,6.70
2018-12-18T20:44:19.746Z,5.30
2018-12-18T20:48:22.214Z,4.40
2018-12-18T20:52:24.597Z,3.40
2018-12-18T20:56:27.008Z,4.10
2018-12-18T21:00:29.402Z,4.20
2018-12-18T21:04:31.738Z,5.50
2018-12-18T21:08:34.100Z,4.80
2018-12-18T21:12:36.434Z,4.90
2018-12-18T21:16:39.437Z,5.30
2018-12-18T21:20:41.752Z,4.10
2018-12-18T21:24:45.186Z,5.80
2018-12-18T21:28:47.516Z,5.50
2018-12-18T21:32:49.896Z,5.00
2018-12-18T21:36:52.317Z,5.10
2018-12-18T21:40:54.642Z,5.80
2018-12-18T21:44:57.052Z,4.80
2018-12-18T21:48:59.376Z,4.40
2018-12-18T21:53:01.771Z,4.90
2018-12-18T21:57:04.306Z,4.50
2018-12-18T22:01:06.632Z,4.40
2018-12-18T22:05:09.005Z,4.60
2018-12-18T22:09:11.383Z,5.50
2018-12-18T22:13:13.761Z,4.10
2018-12-18T22:17:16.137Z,5.50
2018-12-18T22:21:18.487Z,6.20
2018-12-18T22:25:20.863Z,4.60
2018-12-18T22:29:23.206Z,5.80
2018-12-18T22:33:25.652Z,5.00
2018-12-18T22:37:28.083Z,4.70
2018-12-18T22:41:30.442Z,5.60
2018-12-18T22:45:32.824Z,5.50
2018-12-18T22:49:35.232Z,5.70
2018-12-18T22:53:37.620Z,5.30
2018-12-18T22:57:40.485Z,4.70
2018-12-18T23:01:45.085Z,5.20
2018-12-18T23:05:47.466Z,4.80
2018-12-18T23:09:49.844Z,3.90
2018-12-18T23:13:52.580Z,4.90
2018-12-18T23:17:54.899Z,4.80
2018-12-18T23:21:57.904Z,4.30
2018-12-18T23:26:00.217Z,4.00
2018-12-18T23:30:02.602Z,4.30
2018-12-18T23:34:05.077Z,4.50
2018-12-18T23:38:07.453Z,4.50
2018-12-18T23:42:09.819Z,4.20
2018-12-18T23:46:12.240Z,4.50
2018-12-18T23:50:14.620Z,4.50
2018-12-18T23:54:16.991Z,4.20
2018-12-18T23:58:20.021Z,4.20
